Time;durP1;ratioP1;P1;durP2;ratioP2;P2;SDS_P1;SDS_P2;PMS_P1;PMS_P2;Temp;Humidity;BMP_temperature;BMP_pressure;BME280_temperature;BME280_humidity;BME280_pressure;Samples;Min_cycle;Max_cycle;Signal;HPM_P1;HPM_P2
2022/09/02 00:01:19;;;;;;;5.70;1.50;;;15.30;1.00;;;;;;5006336;28;20460;-80
2022/09/02 00:03:46;;;;;;;5.50;1.53;;;15.20;1.00;;;;;;4997162;28;20475;-81
2022/09/02 00:06:20;;;;;;;7.00;1.60;;;15.20;1.00;;;;;;5000413;28;20467;-82
2022/09/02 00:08:47;;;;;;;6.30;2.40;;;15.20;1.00;;;;;;5001819;28;20462;-80
2022/09/02 00:11:16;;;;;;;8.10;1.83;;;15.20;1.00;;;;;;5002222;28;21410;-82
2022/09/02 00:13:44;;;;;;;7.50;2.40;;;15.20;1.00;;;;;;4994770;28;20498;-82
2022/09/02 00:16:13;;;;;;;6.20;1.80;;;15.10;1.00;;;;;;5004959;28;20475;-80
2022/09/02 00:18:42;;;;;;;5.80;1.80;;;15.10;1.00;;;;;;5006029;28;20432;-79
2022/09/02 00:21:12;;;;;;;5.53;1.90;;;15.10;1.00;;;;;;5008837;28;20419;-82
2022/09/02 00:23:42;;;;;;;6.57;2.07;;;15.10;1.00;;;;;;4999431;28;20470;-80
2022/09/02 00:26:10;;;;;;;5.73;1.80;;;15.20;1.00;;;;;;5003456;28;20462;-80
2022/09/02 00:28:41;;;;;;;5.77;1.70;;;15.20;1.00;;;;;;5004941;28;20418;-81
2022/09/02 00:31:08;;;;;;;9.20;2.07;;;15.20;1.00;;;;;;5004137;28;20458;-82
2022/09/02 00:33:40;;;;;;;6.00;1.87;;;15.20;1.00;;;;;;5000839;28;20439;-81
2022/09/02 00:36:08;;;;;;;5.20;1.57;;;15.20;1.00;;;;;;5004346;28;20456;-79
2022/09/02 00:38:40;;;;;;;5.87;1.60;;;15.30;1.00;;;;;;5008221;28;20438;-79
2022/09/02 00:41:10;;;;;;;6.40;1.57;;;15.30;1.00;;;;;;5002942;28;20546;-81
2022/09/02 00:43:49;;;;;;;6.90;1.87;;;15.40;1.00;;;;;;5002826;28;20463;-80
2022/09/02 00:46:18;;;;;;;5.80;1.60;;;15.40;1.00;;;;;;5005441;28;20952;-82
2022/09/02 00:48:49;;;;;;;6.03;2.00;;;15.40;1.00;;;;;;5002591;28;20447;-81
2022/09/02 00:51:20;;;;;;;5.60;1.60;;;15.40;1.00;;;;;;5006512;28;20445;-79
2022/09/02 00:53:49;;;;;;;6.37;2.27;;;15.40;1.00;;;;;;5004030;28;20450;-82
2022/09/02 00:56:25;;;;;;;6.17;2.27;;;15.40;1.00;;;;;;5006155;28;20465;-82
2022/09/02 00:58:53;;;;;;;7.53;2.03;;;15.50;1.00;;;;;;5003292;28;20497;-82
2022/09/02 01:01:21;;;;;;;5.60;1.90;;;15.50;1.00;;;;;;5008801;28;20495;-81
2022/09/02 01:03:49;;;;;;;5.97;1.77;;;15.50;1.00;;;;;;5001051;28;20459;-79
2022/09/02 01:06:32;;;;;;;5.83;1.70;;;15.50;1.00;;;;;;5005759;28;20439;-81
2022/09/02 01:09:07;;;;;;;6.10;1.93;;;15.50;1.00;;;;;;5003512;28;20420;-82
2022/09/02 01:11:43;;;;;;;6.07;1.73;;;15.50;1.00;;;;;;5009334;28;20540;-82
2022/09/02 01:14:12;;;;;;;6.87;1.53;;;15.50;1.00;;;;;;5001957;28;20471;-79
2022/09/02 01:16:43;;;;;;;5.70;1.70;;;15.50;1.00;;;;;;5006113;28;20474;-81
2022/09/02 01:19:20;;;;;;;5.90;1.53;;;15.50;1.00;;;;;;5005781;28;20535;-82
2022/09/02 01:21:50;;;;;;;5.90;1.90;;;15.50;1.00;;;;;;5002672;28;20430;-81
2022/09/02 01:24:23;;;;;;;6.50;1.90;;;15.50;1.00;;;;;;5001177;28;20404;-81
2022/09/02 01:26:53;;;;;;;6.00;1.73;;;15.40;1.00;;;;;;5004036;28;20574;-82
2022/09/02 01:29:22;;;;;;;6.53;2.27;;;15.40;1.00;;;;;;4998981;28;20470;-80
2022/09/02 01:31:48;;;;;;;5.37;1.53;;;15.40;1.00;;;;;;4999110;28;20463;-81
2022/09/02 01:34:19;;;;;;;5.97;1.97;;;15.30;1.00;;;;;;4999872;28;20437;-81
2022/09/02 01:36:46;;;;;;;6.67;2.10;;;15.40;1.00;;;;;;5011640;28;20501;-82
2022/09/02 01:39:22;;;;;;;7.13;2.50;;;15.30;1.00;;;;;;5003882;28;20531;-82
2022/09/02 01:41:49;;;;;;;5.97;1.67;;;15.30;1.00;;;;;;5006891;28;20940;-81
2022/09/02 01:44:26;;;;;;;6.00;1.97;;;15.20;1.00;;;;;;5004830;28;20471;-78
2022/09/02 01:46:53;;;;;;;6.57;2.07;;;15.20;1.00;;;;;;5007014;28;20427;-78
2022/09/02 01:49:22;;;;;;;5.33;1.33;;;15.10;1.00;;;;;;5010121;28;20426;-82
2022/09/02 01:51:49;;;;;;;5.57;1.77;;;15.10;1.00;;;;;;4997746;28;20498;-81
2022/09/02 01:54:21;;;;;;;5.77;1.63;;;15.10;1.00;;;;;;4996903;28;20966;-80
2022/09/02 01:56:48;;;;;;;8.03;1.87;;;15.00;1.00;;;;;;4999196;28;20469;-80
2022/09/02 01:59:20;;;;;;;5.50;1.60;;;15.00;1.00;;;;;;5001137;28;20463;-81
2022/09/02 02:01:48;;;;;;;5.83;1.50;;;15.00;1.00;;;;;;5002845;28;20454;-82
2022/09/02 02:04:21;;;;;;;6.50;1.73;;;14.90;1.00;;;;;;5003105;28;20463;-81
2022/09/02 02:06:48;;;;;;;6.47;1.90;;;14.90;1.00;;;;;;5003906;28;20556;-79
2022/09/02 02:09:21;;;;;;;6.43;1.77;;;15.00;1.00;;;;;;5003041;28;20475;-82
2022/09/02 02:11:48;;;;;;;6.40;2.00;;;14.90;1.00;;;;;;5004882;28;20439;-81
2022/09/02 02:14:19;;;;;;;5.50;1.70;;;14.90;1.00;;;;;;5005327;28;20437;-81
2022/09/02 02:16:47;;;;;;;5.77;1.90;;;14.90;1.00;;;;;;5000442;28;20471;-80
2022/09/02 02:19:19;;;;;;;6.03;1.87;;;14.80;1.00;;;;;;5001340;28;20454;-80
2022/09/02 02:21:46;;;;;;;5.30;1.50;;;14.80;1.00;;;;;;5001941;28;20434;-80
2022/09/02 02:24:14;;;;;;;6.57;2.10;;;14.70;1.00;;;;;;5004081;28;20462;-81
2022/09/02 02:26:43;;;;;;;6.80;2.07;;;14.70;1.00;;;;;;5007663;28;20462;-80
2022/09/02 02:29:10;;;;;;;6.57;1.50;;;14.70;1.00;;;;;;5005454;28;20445;-82
2022/09/02 02:31:42;;;;;;;5.80;1.60;;;14.70;1.00;;;;;;4997381;28;20507;-82
2022/09/02 02:34:12;;;;;;;6.73;2.40;;;14.70;1.00;;;;;;5003415;28;20605;-81
2022/09/02 02:36:42;;;;;;;8.00;2.67;;;14.70;1.00;;;;;;5006824;28;20439;-81
2022/09/02 02:39:10;;;;;;;6.07;1.77;;;14.70;1.00;;;;;;5003765;28;20446;-78
2022/09/02 02:41:43;;;;;;;5.87;1.90;;;14.70;1.00;;;;;;4999816;28;20494;-78
2022/09/02 02:44:10;;;;;;;7.53;2.00;;;14.70;1.00;;;;;;4998158;28;20463;-81
2022/09/02 02:46:42;;;;;;;6.73;1.97;;;14.70;1.00;;;;;;5001930;28;20485;-81
2022/09/02 02:49:09;;;;;;;7.83;2.27;;;14.60;1.00;;;;;;5008568;28;20466;-80
2022/09/02 02:51:42;;;;;;;7.40;2.27;;;14.60;1.00;;;;;;4999707;28;20493;-80
2022/09/02 02:54:10;;;;;;;7.37;2.60;;;14.50;1.00;;;;;;4999757;28;20552;-78
2022/09/02 02:56:42;;;;;;;6.23;1.87;;;14.40;1.00;;;;;;4997196;28;20435;-81
2022/09/02 02:59:10;;;;;;;6.67;2.10;;;14.40;1.00;;;;;;5011318;28;20513;-82
2022/09/02 03:01:41;;;;;;;6.57;2.10;;;14.40;1.00;;;;;;5002878;28;20439;-80
2022/09/02 03:04:10;;;;;;;7.43;2.03;;;14.30;1.00;;;;;;5002647;28;20458;-81
2022/09/02 03:06:41;;;;;;;6.40;2.20;;;14.30;1.00;;;;;;5001490;28;20470;-81
2022/09/02 03:09:09;;;;;;;7.27;2.33;;;14.20;1.00;;;;;;4997338;28;20558;-78
2022/09/02 03:11:40;;;;;;;6.20;2.13;;;14.10;1.00;;;;;;4999282;28;20867;-82
2022/09/02 03:14:10;;;;;;;7.70;2.33;;;14.10;1.00;;;;;;5001630;28;20474;-81
2022/09/02 03:16:42;;;;;;;9.90;4.70;;;14.00;1.00;;;;;;5003801;28;20450;-80
2022/09/02 03:19:09;;;;;;;7.53;2.40;;;14.00;1.00;;;;;;5002102;28;20431;-81
2022/09/02 03:21:38;;;;;;;7.10;2.20;;;14.00;1.00;;;;;;5004891;28;20558;-79
2022/09/02 03:24:07;;;;;;;7.60;2.97;;;14.00;1.00;;;;;;5005088;28;20483;-82
2022/09/02 03:26:34;;;;;;;8.30;3.40;;;14.00;1.00;;;;;;4998963;28;20482;-81
2022/09/02 03:29:02;;;;;;;12.53;2.77;;;14.00;1.00;;;;;;5000735;28;20463;-82
2022/09/02 03:31:30;;;;;;;8.63;2.40;;;14.00;1.00;;;;;;5001206;28;21372;-82
2022/09/02 03:34:02;;;;;;;6.70;2.70;;;13.90;1.00;;;;;;5004407;28;20427;-80
2022/09/02 03:36:31;;;;;;;8.10;2.83;;;13.80;1.00;;;;;;5006140;28;20435;-81
2022/09/02 03:39:02;;;;;;;6.70;2.30;;;13.80;1.00;;;;;;5004662;28;20579;-81
2022/09/02 03:41:29;;;;;;;7.27;2.03;;;13.70;1.00;;;;;;5001068;28;20973;-82
2022/09/02 03:43:57;;;;;;;6.20;2.10;;;13.70;1.00;;;;;;5002601;28;20948;-81
2022/09/02 03:46:25;;;;;;;8.77;2.90;;;13.70;1.00;;;;;;5002573;28;20474;-80
2022/09/02 03:48:53;;;;;;;6.53;2.57;;;13.60;1.00;;;;;;5004527;28;20562;-82
2022/09/02 03:51:23;;;;;;;8.07;2.90;;;13.60;1.00;;;;;;5003360;28;20442;-81
2022/09/02 03:53:50;;;;;;;8.10;2.80;;;13.50;1.00;;;;;;4999569;28;20538;-82
2022/09/02 03:56:23;;;;;;;6.83;3.00;;;13.50;1.00;;;;;;5007158;28;20465;-79
2022/09/02 03:58:51;;;;;;;8.73;2.30;;;13.50;1.00;;;;;;5010053;28;20425;-83
2022/09/02 04:01:24;;;;;;;10.97;3.13;;;13.50;1.00;;;;;;4997423;28;20438;-79
2022/09/02 04:03:54;;;;;;;7.63;3.23;;;13.50;1.00;;;;;;4997305;28;20952;-79
2022/09/02 04:06:24;;;;;;;6.00;2.50;;;13.50;1.00;;;;;;5000833;28;20532;-83
2022/09/02 04:08:51;;;;;;;7.00;2.53;;;13.50;1.00;;;;;;4997905;28;20471;-82
2022/09/02 04:11:28;;;;;;;8.20;2.83;;;13.50;1.00;;;;;;5000705;28;20427;-81
2022/09/02 04:13:55;;;;;;;7.33;3.10;;;13.50;1.00;;;;;;5002350;28;20443;-82
2022/09/02 04:16:27;;;;;;;9.90;3.53;;;13.50;1.00;;;;;;4998996;28;25269;-82
2022/09/02 04:19:03;;;;;;;8.00;2.73;;;13.50;1.00;;;;;;5002257;28;20950;-82
2022/09/02 04:21:32;;;;;;;8.17;3.50;;;13.60;1.00;;;;;;5000084;28;20917;-75
2022/09/02 04:24:02;;;;;;;7.40;3.00;;;13.70;1.00;;;;;;4993471;28;20412;-75
2022/09/02 04:26:30;;;;;;;10.80;6.80;;;13.80;1.00;;;;;;4993157;28;20466;-77
2022/09/02 04:28:57;;;;;;;9.80;4.87;;;13.80;1.00;;;;;;4997212;28;20447;-77
2022/09/02 04:31:28;;;;;;;8.90;4.90;;;13.90;1.00;;;;;;4994897;28;20476;-77
2022/09/02 04:33:57;;;;;;;6.53;2.47;;;13.90;1.00;;;;;;4991547;28;22854;-76
2022/09/02 04:36:25;;;;;;;8.50;2.63;;;13.90;1.00;;;;;;4991653;28;20444;-77
2022/09/02 04:38:58;;;;;;;7.00;2.93;;;14.00;1.00;;;;;;4994083;28;20496;-78
2022/09/02 04:41:27;;;;;;;7.87;2.50;;;14.00;1.00;;;;;;4995357;28;20455;-82
2022/09/02 04:43:58;;;;;;;6.67;2.80;;;14.00;1.00;;;;;;5002037;28;20482;-80
2022/09/02 04:46:26;;;;;;;7.00;2.53;;;14.00;1.00;;;;;;4994650;28;20490;-79
2022/09/02 04:48:58;;;;;;;7.33;3.23;;;14.00;1.00;;;;;;4994957;28;20422;-77
2022/09/02 04:51:26;;;;;;;7.57;3.00;;;14.00;1.00;;;;;;4994151;28;20431;-79
2022/09/02 04:53:55;;;;;;;9.33;2.50;;;14.10;1.00;;;;;;4992069;28;20969;-79
2022/09/02 04:56:28;;;;;;;10.03;3.10;;;14.10;1.00;;;;;;4994410;28;20427;-77
2022/09/02 04:59:04;;;;;;;7.93;3.10;;;14.10;1.00;;;;;;4993099;28;20462;-77
2022/09/02 05:01:35;;;;;;;8.20;3.73;;;14.10;1.00;;;;;;4997014;28;21316;-76
2022/09/02 05:04:09;;;;;;;7.07;2.60;;;14.10;1.00;;;;;;4998729;28;20425;-80
2022/09/02 05:06:38;;;;;;;9.50;4.20;;;14.00;1.00;;;;;;5001534;28;20490;-78
2022/09/02 05:09:07;;;;;;;7.50;3.20;;;14.00;1.00;;;;;;4999480;28;20423;-81
2022/09/02 05:11:37;;;;;;;9.63;3.03;;;14.00;1.00;;;;;;5002199;28;21244;-81
2022/09/02 05:14:07;;;;;;;7.77;2.70;;;14.10;1.00;;;;;;4999385;28;20451;-78
2022/09/02 05:16:39;;;;;;;6.53;2.80;;;14.10;1.00;;;;;;5003475;28;20467;-81
2022/09/02 05:19:11;;;;;;;9.27;3.37;;;14.00;1.00;;;;;;5007393;28;20507;-79
2022/09/02 05:21:42;;;;;;;8.87;2.87;;;14.00;1.00;;;;;;4999858;28;20554;-77
2022/09/02 05:24:09;;;;;;;10.13;3.37;;;14.00;1.00;;;;;;5002253;28;20463;-77
2022/09/02 05:26:37;;;;;;;9.83;3.43;;;14.00;1.00;;;;;;4997860;28;20457;-77
2022/09/02 05:29:07;;;;;;;8.47;3.73;;;14.10;1.00;;;;;;5000692;28;20455;-78
2022/09/02 05:31:34;;;;;;;8.53;4.00;;;14.20;1.00;;;;;;4985582;28;20439;-80
2022/09/02 05:34:01;;;;;;;12.70;5.87;;;14.30;1.00;;;;;;4995778;28;20465;-72
2022/09/02 05:36:31;;;;;;;9.60;3.00;;;14.40;1.00;;;;;;4993831;28;20479;-72
2022/09/02 05:39:00;;;;;;;10.83;3.20;;;14.50;1.00;;;;;;4994508;28;20529;-79
2022/09/02 05:41:28;;;;;;;11.53;3.73;;;14.60;1.00;;;;;;4991398;28;20844;-78
2022/09/02 05:43:59;;;;;;;10.93;3.50;;;14.70;1.00;;;;;;5003165;28;20419;-79
2022/09/02 05:46:27;;;;;;;8.17;2.83;;;14.90;1.00;;;;;;5001882;28;20563;-80
2022/09/02 05:49:08;;;;;;;12.00;6.23;;;14.90;1.00;;;;;;4999751;28;20407;-78
2022/09/02 05:51:42;;;;;;;9.67;3.80;;;15.00;1.00;;;;;;4999502;28;20665;-81
2022/09/02 05:54:16;;;;;;;27.50;22.07;;;15.10;1.00;;;;;;4988091;28;20462;-79
2022/09/02 05:56:46;;;;;;;9.13;3.43;;;15.30;1.00;;;;;;4988720;28;21361;-77
2022/09/02 05:59:20;;;;;;;7.43;2.90;;;15.30;1.00;;;;;;5005795;28;20462;-89
2022/09/02 06:01:48;;;;;;;8.27;3.50;;;15.30;1.00;;;;;;5000623;28;20413;-89
2022/09/02 06:04:19;;;;;;;7.17;2.70;;;15.30;1.00;;;;;;4977024;28;20521;-83
2022/09/02 06:07:00;;;;;;;13.73;3.80;;;15.30;1.00;;;;;;4975212;28;20470;-76
2022/09/02 06:09:26;;;;;;;7.07;2.70;;;15.20;1.00;;;;;;4983659;28;20467;-78
2022/09/02 06:11:58;;;;;;;8.97;3.03;;;15.30;1.00;;;;;;4995547;28;20494;-78
2022/09/02 06:14:26;;;;;;;7.80;2.80;;;15.40;1.00;;;;;;4998533;28;20541;-80
2022/09/02 06:16:59;;;;;;;9.20;2.50;;;15.30;1.00;;;;;;4988158;28;20474;-77
2022/09/02 06:19:29;;;;;;;9.97;3.07;;;15.40;1.00;;;;;;5003005;28;20485;-85
2022/09/02 06:22:01;;;;;;;9.43;4.13;;;15.40;1.00;;;;;;5007207;28;20445;-80
2022/09/02 06:24:30;;;;;;;8.23;3.60;;;15.50;1.00;;;;;;4996194;28;20474;-76
2022/09/02 06:27:01;;;;;;;7.17;2.60;;;15.60;1.00;;;;;;4978940;28;20442;-79
2022/09/02 06:29:29;;;;;;;6.60;2.73;;;15.60;1.00;;;;;;5005390;28;20489;-79
2022/09/02 06:31:59;;;;;;;9.43;3.33;;;15.70;1.00;;;;;;5002147;28;20426;-79
2022/09/02 06:34:26;;;;;;;8.50;3.67;;;15.80;1.00;;;;;;5020523;28;20493;-83
2022/09/02 06:36:59;;;;;;;7.80;2.80;;;15.90;1.00;;;;;;5023598;28;20484;-83
2022/09/02 06:39:27;;;;;;;8.80;3.20;;;15.90;1.00;;;;;;5026489;28;20442;-84
2022/09/02 06:41:58;;;;;;;8.73;3.40;;;16.00;1.00;;;;;;5024125;28;20425;-82
2022/09/02 06:44:25;;;;;;;8.53;3.63;;;16.10;1.00;;;;;;5023690;28;20458;-83
2022/09/02 06:47:02;;;;;;;14.27;4.07;;;16.20;1.00;;;;;;5020768;28;20458;-79
2022/09/02 06:49:30;;;;;;;7.77;3.07;;;16.20;1.00;;;;;;5024030;28;20472;-80
2022/09/02 06:52:04;;;;;;;6.53;2.37;;;16.30;1.00;;;;;;5026908;28;20442;-83
2022/09/02 06:54:31;;;;;;;9.27;3.20;;;16.30;1.00;;;;;;5023849;28;20522;-81
2022/09/02 06:56:58;;;;;;;9.40;3.03;;;16.40;1.00;;;;;;5025590;28;20514;-81
2022/09/02 06:59:25;;;;;;;9.20;3.60;;;16.50;1.00;;;;;;5029667;28;21247;-83
2022/09/02 07:01:57;;;;;;;6.50;2.80;;;16.60;1.00;;;;;;5027791;28;21001;-83
2022/09/02 07:07:11;;;;;;;7.33;2.83;;;16.80;1.00;;;;;;5022143;28;20437;-79
2022/09/02 07:09:39;;;;;;;8.40;2.97;;;16.90;1.00;;;;;;4998566;28;20463;-82
2022/09/02 07:12:08;;;;;;;7.40;3.40;;;17.10;1.00;;;;;;5031578;28;20453;-80
2022/09/02 07:14:39;;;;;;;6.73;2.83;;;17.20;1.00;;;;;;5027268;28;20417;-82
2022/09/02 07:17:08;;;;;;;8.90;3.20;;;17.30;1.00;;;;;;5021834;28;20458;-80
2022/09/02 07:19:38;;;;;;;7.30;2.80;;;17.30;1.00;;;;;;5015357;28;20423;-79
2022/09/02 07:22:06;;;;;;;9.67;2.70;;;17.10;1.00;;;;;;5021717;28;21192;-78
2022/09/02 07:24:39;;;;;;;9.30;3.87;;;17.20;1.00;;;;;;5014179;28;20451;-80
2022/09/02 07:27:07;;;;;;;6.87;2.40;;;17.40;1.00;;;;;;5015472;28;20532;-80
2022/09/02 07:29:40;;;;;;;9.37;3.03;;;17.60;1.00;;;;;;5024894;28;20464;-79
2022/09/02 07:32:07;;;;;;;8.40;2.53;;;17.80;1.00;;;;;;5018990;28;20458;-78
2022/09/02 07:34:38;;;;;;;6.57;2.80;;;17.90;1.00;;;;;;5005491;28;20442;-77
2022/09/02 07:37:05;;;;;;;7.50;2.70;;;18.10;1.00;;;;;;4993463;28;20482;-78
2022/09/02 07:39:42;;;;;;;6.13;2.23;;;18.20;1.00;;;;;;4998632;28;20982;-77
2022/09/02 07:42:10;;;;;;;7.67;2.90;;;18.20;1.00;;;;;;4998356;28;20478;-79
2022/09/02 07:44:38;;;;;;;6.97;3.23;;;18.20;1.00;;;;;;4994426;28;20402;-78
2022/09/02 07:47:06;;;;;;;7.93;2.90;;;18.40;1.00;;;;;;4996491;28;20471;-77
2022/09/02 07:49:33;;;;;;;6.90;2.40;;;18.60;1.00;;;;;;4996223;28;20471;-78
2022/09/02 07:52:08;;;;;;;7.10;2.57;;;18.70;1.00;;;;;;4999318;28;20435;-78
2022/09/02 07:54:43;;;;;;;13.73;3.97;;;18.70;1.00;;;;;;4999174;28;20774;-79
2022/09/02 07:57:11;;;;;;;9.00;3.03;;;18.60;1.00;;;;;;4992366;28;20485;-76
2022/09/02 07:59:38;;;;;;;8.83;2.80;;;18.50;1.00;;;;;;4996873;28;20516;-79
2022/09/02 08:02:10;;;;;;;7.20;2.60;;;18.50;1.00;;;;;;5005633;28;21347;-77
2022/09/02 08:04:38;;;;;;;6.00;2.40;;;18.50;1.00;;;;;;4997647;28;20475;-77
2022/09/02 08:07:10;;;;;;;6.70;2.40;;;18.60;1.00;;;;;;4988183;28;20866;-79
2022/09/02 08:09:39;;;;;;;7.67;2.63;;;18.80;1.00;;;;;;4996551;28;20452;-78
2022/09/02 08:12:12;;;;;;;6.70;2.10;;;19.10;1.00;;;;;;5000194;28;20441;-77
2022/09/02 08:14:39;;;;;;;8.67;3.20;;;19.40;1.00;;;;;;4999432;28;20420;-78
2022/09/02 08:17:10;;;;;;;10.00;2.87;;;19.80;1.00;;;;;;4998521;28;20467;-78
2022/09/02 08:19:40;;;;;;;8.20;3.73;;;19.90;1.00;;;;;;5000704;28;20462;-79
2022/09/02 08:22:11;;;;;;;8.53;4.87;;;20.00;1.00;;;;;;5000466;28;20454;-78
2022/09/02 08:24:40;;;;;;;8.23;3.00;;;20.00;1.00;;;;;;4982634;28;20837;-78
2022/09/02 08:27:12;;;;;;;6.47;2.50;;;20.00;1.00;;;;;;4994032;28;20457;-80
2022/09/02 08:29:39;;;;;;;7.87;2.40;;;20.00;1.00;;;;;;4994524;28;20474;-77
2022/09/02 08:32:06;;;;;;;7.97;2.70;;;20.00;1.00;;;;;;4997890;28;20423;-77
2022/09/02 08:34:33;;;;;;;6.73;2.60;;;19.90;1.00;;;;;;4997609;28;20543;-78
2022/09/02 08:37:03;;;;;;;6.97;2.97;;;19.80;1.00;;;;;;4998844;28;20438;-79
2022/09/02 08:39:30;;;;;;;8.70;2.27;;;20.00;1.00;;;;;;4998305;28;20451;-78
2022/09/02 08:42:07;;;;;;;7.93;3.10;;;20.10;1.00;;;;;;4992798;28;25274;-78
2022/09/02 08:44:41;;;;;;;13.33;5.43;;;20.30;1.00;;;;;;4988484;28;20495;-80
2022/09/02 08:47:14;;;;;;;9.60;3.67;;;20.50;1.00;;;;;;4994464;28;20470;-80
2022/09/02 08:49:44;;;;;;;6.17;1.70;;;20.70;1.00;;;;;;5002482;28;20476;-77
2022/09/02 08:52:22;;;;;;;6.20;2.10;;;20.80;1.00;;;;;;4995395;28;20553;-78
2022/09/02 08:54:54;;;;;;;5.73;1.93;;;21.00;1.00;;;;;;4997708;28;20863;-80
2022/09/02 08:57:26;;;;;;;5.70;1.73;;;21.00;1.00;;;;;;4997320;28;20502;-76
2022/09/02 09:00:03;;;;;;;5.07;1.23;;;20.90;1.00;;;;;;4998754;28;20491;-78
2022/09/02 09:02:42;;;;;;;6.53;1.60;;;20.90;1.00;;;;;;4995571;28;20863;-77
2022/09/02 09:05:23;;;;;;;6.07;1.80;;;21.10;1.00;;;;;;4997557;28;20471;-77
2022/09/02 09:08:06;;;;;;;8.33;1.97;;;21.20;1.00;;;;;;5002747;28;20579;-78
2022/09/02 09:10:44;;;;;;;6.17;1.77;;;21.20;1.00;;;;;;4997806;28;20536;-80
2022/09/02 09:13:46;;;;;;;6.77;1.90;;;21.40;1.00;;;;;;4996367;28;20469;-78
2022/09/02 09:16:28;;;;;;;6.73;1.40;;;21.70;1.00;;;;;;4988152;28;20900;-80
2022/09/02 09:19:13;;;;;;;5.60;1.67;;;21.80;1.00;;;;;;4996663;28;20897;-76
2022/09/02 09:21:44;;;;;;;8.77;2.90;;;22.00;1.00;;;;;;4988102;28;20471;-78
2022/09/02 09:24:43;;;;;;;6.47;1.30;;;22.30;1.00;;;;;;4993072;28;20498;-79
2022/09/02 09:27:13;;;;;;;7.97;3.20;;;23.30;1.00;;;;;;5000870;28;20905;-77
2022/09/02 09:29:43;;;;;;;7.73;1.40;;;24.90;1.00;;;;;;5000685;28;20491;-78
2022/09/02 09:32:24;;;;;;;8.53;1.70;;;26.40;1.00;;;;;;4999207;28;20517;-77
2022/09/02 09:35:02;;;;;;;7.30;1.83;;;27.50;1.00;;;;;;4990457;28;20939;-80
2022/09/02 09:37:32;;;;;;;8.13;1.53;;;28.00;1.00;;;;;;5004903;28;20971;-81
2022/09/02 09:40:22;;;;;;;9.47;2.80;;;28.80;1.00;;;;;;5000328;28;20451;-80
2022/09/02 09:43:04;;;;;;;11.17;2.00;;;29.40;1.00;;;;;;4999262;28;20523;-80
2022/09/02 09:45:35;;;;;;;6.30;1.40;;;30.40;1.00;;;;;;4997479;28;20419;-79
2022/09/02 09:48:26;;;;;;;4.67;1.40;;;30.60;1.00;;;;;;5002700;28;20407;-80
2022/09/02 09:51:14;;;;;;;5.90;1.60;;;30.70;1.00;;;;;;4989876;28;20510;-80
2022/09/02 09:53:47;;;;;;;4.10;1.13;;;31.00;1.00;;;;;;4986080;28;20859;-78
2022/09/02 09:56:31;;;;;;;5.43;1.57;;;31.20;1.00;;;;;;5000756;28;20736;-77
2022/09/02 09:59:03;;;;;;;5.13;1.20;;;30.60;1.00;;;;;;4986007;28;20493;-80
2022/09/02 10:01:32;;;;;;;6.93;2.83;;;29.70;1.00;;;;;;4998009;28;20480;-81
2022/09/02 10:04:10;;;;;;;5.47;1.33;;;30.40;1.00;;;;;;5002390;28;20427;-78
2022/09/02 10:06:47;;;;;;;5.23;1.83;;;31.30;1.00;;;;;;4997552;28;20462;-78
2022/09/02 10:09:32;;;;;;;6.13;1.70;;;30.70;1.00;;;;;;5006030;28;20469;-79
2022/09/02 10:12:06;;;;;;;4.47;1.50;;;31.50;1.00;;;;;;5004609;28;20489;-78
2022/09/02 10:14:36;;;;;;;4.53;1.30;;;31.00;1.00;;;;;;5011575;28;20937;-77
2022/09/02 10:17:27;;;;;;;4.87;1.40;;;30.50;1.00;;;;;;4999783;28;20433;-76
2022/09/02 10:20:06;;;;;;;5.23;1.50;;;30.70;1.00;;;;;;4994766;28;20989;-79
2022/09/02 10:22:52;;;;;;;5.10;1.97;;;32.00;1.00;;;;;;4995468;28;20958;-78
2022/09/02 10:25:29;;;;;;;4.77;2.13;;;32.50;1.00;;;;;;4992808;28;20490;-77
2022/09/02 10:28:10;;;;;;;5.07;1.90;;;30.40;1.00;;;;;;4999923;28;20533;-78
2022/09/02 10:30:46;;;;;;;4.47;1.60;;;28.40;1.00;;;;;;4989132;28;20529;-77
2022/09/02 10:33:35;;;;;;;4.93;2.70;;;27.20;1.00;;;;;;4983763;28;20917;-76
2022/09/02 10:36:11;;;;;;;5.87;1.87;;;26.70;1.00;;;;;;4998638;28;20459;-78
2022/09/02 10:38:44;;;;;;;6.67;2.20;;;26.90;1.00;;;;;;4997174;28;20470;-79
2022/09/02 10:41:31;;;;;;;6.60;1.80;;;26.20;1.00;;;;;;5003439;28;20470;-79
2022/09/02 10:44:19;;;;;;;5.27;1.87;;;26.50;1.00;;;;;;4973006;28;20582;-79
2022/09/02 10:46:54;;;;;;;4.97;1.83;;;26.80;1.00;;;;;;4991261;28;20974;-77
2022/09/02 10:49:43;;;;;;;5.10;1.60;;;25.80;1.00;;;;;;4999033;28;20474;-78
2022/09/02 10:52:24;;;;;;;6.10;1.60;;;24.70;1.00;;;;;;4998126;28;20550;-80
2022/09/02 10:55:03;;;;;;;9.77;2.23;;;24.60;1.00;;;;;;4978824;28;20494;-79
2022/09/02 10:57:35;;;;;;;5.00;1.90;;;25.80;1.00;;;;;;4998890;28;20616;-80
2022/09/02 11:00:10;;;;;;;6.27;2.13;;;26.20;1.00;;;;;;4997320;28;20475;-78
2022/09/02 11:02:41;;;;;;;4.90;1.50;;;25.70;1.00;;;;;;4998431;28;20852;-77
2022/09/02 11:05:13;;;;;;;5.80;2.00;;;24.80;1.00;;;;;;4995330;28;20562;-77
2022/09/02 11:07:49;;;;;;;10.90;5.37;;;24.30;1.00;;;;;;4998330;28;21309;-78
2022/09/02 11:10:21;;;;;;;6.33;2.20;;;24.10;1.00;;;;;;4979905;28;20461;-78
2022/09/02 11:12:53;;;;;;;5.70;1.83;;;24.20;1.00;;;;;;5005082;28;20483;-77
2022/09/02 11:15:31;;;;;;;8.17;2.80;;;25.90;1.00;;;;;;5000136;28;20482;-76
2022/09/02 11:18:05;;;;;;;6.80;2.10;;;28.20;1.00;;;;;;4996909;28;20958;-77
2022/09/02 11:20:38;;;;;;;7.33;1.70;;;30.40;1.00;;;;;;4996805;28;20477;-78
2022/09/02 11:23:17;;;;;;;6.57;1.80;;;32.40;1.00;;;;;;4998758;28;20471;-79
2022/09/02 11:25:54;;;;;;;4.80;1.97;;;32.50;1.00;;;;;;4996513;28;20470;-83
2022/09/02 11:28:38;;;;;;;5.93;1.70;;;30.80;1.00;;;;;;5007433;28;20456;-82
2022/09/02 11:31:15;;;;;;;6.03;2.03;;;29.20;1.00;;;;;;5007583;28;20451;-81
2022/09/02 11:33:56;;;;;;;5.00;1.33;;;29.00;1.00;;;;;;4989875;28;20517;-82
2022/09/02 11:36:25;;;;;;;4.30;1.43;;;31.40;1.00;;;;;;5002639;28;20474;-83
2022/09/02 11:39:04;;;;;;;7.77;1.50;;;33.30;1.00;;;;;;4976281;28;20430;-81
2022/09/02 11:41:55;;;;;;;3.90;1.50;;;33.90;1.00;;;;;;4990313;28;20437;-79
2022/09/02 11:44:55;;;;;;;6.00;1.90;;;31.60;1.00;;;;;;4997059;28;20467;-81
2022/09/02 11:48:06;;;;;;;10.93;3.67;;;30.20;1.00;;;;;;5003392;28;20426;-80
2022/09/02 11:50:51;;;;;;;5.50;1.70;;;28.90;1.00;;;;;;4941801;28;20426;-82
2022/09/02 11:53:26;;;;;;;5.80;1.83;;;28.10;1.00;;;;;;4945184;28;20462;-81
2022/09/02 11:55:58;;;;;;;4.93;1.80;;;27.40;1.00;;;;;;4982670;28;20438;-82
2022/09/02 11:58:33;;;;;;;6.63;1.97;;;26.80;1.00;;;;;;4991565;28;20533;-78
2022/09/02 12:01:23;;;;;;;6.90;1.70;;;26.40;1.00;;;;;;4981499;28;20475;-77
2022/09/02 12:03:57;;;;;;;5.67;1.47;;;27.10;1.00;;;;;;4995544;28;23527;-79
2022/09/02 12:06:30;;;;;;;5.47;1.37;;;29.80;1.00;;;;;;4988652;28;20425;-79
2022/09/02 12:09:07;;;;;;;5.80;2.00;;;32.10;1.00;;;;;;4997724;28;20450;-79
2022/09/02 12:11:51;;;;;;;3.90;1.30;;;32.80;1.00;;;;;;5002287;28;20490;-80
2022/09/02 12:15:06;;;;;;;6.53;1.70;;;32.00;1.00;;;;;;4987401;28;20479;-79
2022/09/02 12:18:17;;;;;;;4.30;1.30;;;32.20;1.00;;;;;;4991863;28;20474;-79
2022/09/02 12:21:10;;;;;;;6.20;1.50;;;34.30;1.00;;;;;;4990322;28;20462;-78
2022/09/02 12:24:15;;;;;;;4.80;1.60;;;35.40;1.00;;;;;;5003779;28;20450;-78
2022/09/02 12:27:08;;;;;;;4.53;1.70;;;35.50;1.00;;;;;;4993213;28;20426;-79
2022/09/02 12:29:35;;;;;;;5.27;2.30;;;34.70;1.00;;;;;;4997952;28;20443;-78
2022/09/02 12:32:08;;;;;;;4.20;1.60;;;33.40;1.00;;;;;;4979484;28;20501;-80
2022/09/02 12:34:56;;;;;;;6.40;1.30;;;32.70;1.00;;;;;;5012229;28;20466;-79
2022/09/02 12:37:54;;;;;;;5.00;2.33;;;30.30;1.00;;;;;;4998685;28;20989;-78
2022/09/02 12:40:36;;;;;;;5.40;1.70;;;28.40;1.00;;;;;;4944293;28;20562;-78
2022/09/02 12:43:24;;;;;;;5.30;1.60;;;27.30;1.00;;;;;;4986873;28;20485;-79
2022/09/02 12:45:57;;;;;;;5.37;1.60;;;26.80;1.00;;;;;;4982663;28;20509;-78
2022/09/02 12:48:37;;;;;;;4.90;1.20;;;26.60;1.00;;;;;;5005386;28;20490;-79
2022/09/02 12:51:09;;;;;;;5.47;2.20;;;27.70;1.00;;;;;;4990718;28;20585;-77
2022/09/02 12:53:42;;;;;;;3.30;1.10;;;30.60;1.00;;;;;;4995979;28;21507;-77
2022/09/02 12:56:21;;;;;;;3.60;1.30;;;33.30;1.00;;;;;;5000513;28;20465;-79
2022/09/02 12:58:53;;;;;;;4.10;1.30;;;33.80;1.00;;;;;;4998827;28;20402;-80
2022/09/02 13:01:41;;;;;;;3.70;1.20;;;32.10;1.00;;;;;;4998943;28;20524;-79
2022/09/02 13:04:30;;;;;;;6.93;2.50;;;30.20;1.00;;;;;;5004459;28;20447;-77
2022/09/02 13:07:37;;;;;;;3.70;1.40;;;29.50;1.00;;;;;;5000777;28;20455;-78
2022/09/02 13:10:37;;;;;;;3.80;1.47;;;30.30;1.00;;;;;;4967342;28;20466;-78
2022/09/02 13:13:35;;;;;;;4.10;1.93;;;31.20;1.00;;;;;;4996679;28;20456;-79
2022/09/02 13:16:15;;;;;;;4.33;1.83;;;34.00;1.00;;;;;;4998179;28;20498;-79
2022/09/02 13:19:15;;;;;;;3.30;1.50;;;36.00;1.00;;;;;;5003753;28;21516;-80
2022/09/02 13:22:02;;;;;;;4.63;1.40;;;37.20;1.00;;;;;;4999035;28;20431;-81
2022/09/02 13:25:09;;;;;;;5.27;1.70;;;37.00;1.00;;;;;;4999922;28;20463;-78
2022/09/02 13:28:11;;;;;;;4.10;1.43;;;34.80;1.00;;;;;;5009888;28;20463;-79
2022/09/02 13:31:12;;;;;;;5.87;1.43;;;31.50;1.00;;;;;;5001646;28;20419;-81
2022/09/02 13:33:42;;;;;;;4.27;1.63;;;29.30;1.00;;;;;;4998430;28;20917;-76